createdAt,value
2018-04-30T00:01:10.233Z,5.70
2018-04-30T00:03:39.729Z,4.57
2018-04-30T00:06:09.299Z,4.73
2018-04-30T00:08:38.806Z,4.80
2018-04-30T00:11:08.390Z,4.83
2018-04-30T00:13:37.852Z,5.33
2018-04-30T00:16:07.344Z,4.50
2018-04-30T00:18:36.813Z,4.43
2018-04-30T00:21:06.284Z,3.33
2018-04-30T00:23:35.782Z,3.53
2018-04-30T00:26:05.460Z,4.13
2018-04-30T00:28:34.949Z,4.00
2018-04-30T00:31:04.432Z,3.20
2018-04-30T00:33:34.089Z,3.50
2018-04-30T00:36:03.752Z,2.87
2018-04-30T00:38:33.275Z,3.47
2018-04-30T00:41:02.753Z,3.03
2018-04-30T00:43:32.577Z,2.97
2018-04-30T00:46:01.069Z,2.60
2018-04-30T00:48:30.585Z,3.10
2018-04-30T00:51:00.084Z,2.60
2018-04-30T00:53:29.558Z,3.27
2018-04-30T00:55:59.052Z,2.20
2018-04-30T00:58:28.549Z,1.90
2018-04-30T01:00:58.040Z,2.40
2018-04-30T01:03:27.520Z,3.13
2018-04-30T01:05:56.925Z,2.40
2018-04-30T01:08:25.460Z,1.77
2018-04-30T01:10:55.492Z,2.17
2018-04-30T01:13:25.219Z,2.27
2018-04-30T01:15:53.713Z,1.60
2018-04-30T01:18:22.193Z,1.63
2018-04-30T01:20:51.679Z,1.33
2018-04-30T01:23:20.171Z,1.60
2018-04-30T01:25:48.760Z,1.30
2018-04-30T01:28:17.271Z,1.30
2018-04-30T01:30:46.749Z,1.27
2018-04-30T01:33:16.243Z,1.50
2018-04-30T01:35:45.806Z,1.67
2018-04-30T01:38:15.312Z,1.30
2018-04-30T01:40:43.593Z,1.00
2018-04-30T01:43:12.885Z,1.17
2018-04-30T01:45:41.485Z,1.10
2018-04-30T01:48:09.941Z,0.80
2018-04-30T01:50:38.599Z,1.23
2018-04-30T01:53:07.073Z,0.90
2018-04-30T01:55:35.550Z,1.00
2018-04-30T01:58:04.091Z,1.00
2018-04-30T02:00:32.329Z,0.77
2018-04-30T02:03:00.799Z,1.30
2018-04-30T02:05:29.297Z,0.83
2018-04-30T02:07:57.770Z,0.70
2018-04-30T02:10:26.269Z,0.80
2018-04-30T02:12:54.736Z,0.80
2018-04-30T02:15:23.323Z,0.67
2018-04-30T02:17:51.802Z,0.90
2018-04-30T02:20:20.302Z,0.80
2018-04-30T02:22:48.781Z,0.80
2018-04-30T02:25:17.334Z,0.73
2018-04-30T02:27:46.573Z,0.60
2018-04-30T02:30:15.209Z,0.80
2018-04-30T02:32:44.131Z,0.60
2018-04-30T02:35:12.281Z,0.90
2018-04-30T02:37:41.609Z,0.80
2018-04-30T02:40:10.095Z,0.60
2018-04-30T02:42:38.577Z,0.70
2018-04-30T02:45:06.890Z,0.63
2018-04-30T02:47:35.546Z,0.70
2018-04-30T02:50:03.702Z,0.70
2018-04-30T02:52:32.570Z,0.70
2018-04-30T02:55:01.842Z,0.93
2018-04-30T02:57:30.337Z,0.80
2018-04-30T02:59:59.989Z,0.63
2018-04-30T03:02:28.462Z,0.83
2018-04-30T03:04:57.130Z,0.80
2018-04-30T03:07:26.439Z,0.67
2018-04-30T03:09:55.705Z,0.70
2018-04-30T03:12:24.192Z,0.50
2018-04-30T03:14:52.696Z,0.97
2018-04-30T03:17:22.281Z,0.73
2018-04-30T03:19:50.789Z,0.60
2018-04-30T03:22:20.136Z,0.90
2018-04-30T03:24:48.600Z,0.67
2018-04-30T03:27:18.038Z,0.73
2018-04-30T03:29:46.512Z,1.13
2018-04-30T03:32:15.005Z,0.90
2018-04-30T03:34:43.481Z,0.90
2018-04-30T03:37:12.353Z,0.60
2018-04-30T03:39:41.595Z,0.83
2018-04-30T03:42:09.756Z,0.80
2018-04-30T03:44:38.252Z,0.67
2018-04-30T03:47:06.814Z,0.83
2018-04-30T03:49:35.378Z,0.70
2018-04-30T03:52:03.977Z,0.70
2018-04-30T03:54:32.477Z,1.10
2018-04-30T03:57:01.045Z,0.80
2018-04-30T03:59:29.196Z,0.70
2018-04-30T04:02:08.894Z,0.90
2018-04-30T04:04:48.708Z,1.40
2018-04-30T04:07:17.180Z,0.90
2018-04-30T04:09:45.685Z,1.00
2018-04-30T04:12:14.169Z,0.80
2018-04-30T04:14:42.648Z,0.97
2018-04-30T04:17:11.134Z,0.93
2018-04-30T04:19:39.620Z,0.90
2018-04-30T04:22:08.104Z,1.00
2018-04-30T04:24:36.604Z,0.77
2018-04-30T04:27:05.107Z,1.10
2018-04-30T04:29:33.640Z,1.07
2018-04-30T04:32:02.118Z,0.83
2018-04-30T04:34:30.620Z,1.10
2018-04-30T04:36:59.125Z,1.10
2018-04-30T04:39:27.893Z,0.87
2018-04-30T04:41:56.464Z,1.07
2018-04-30T04:44:24.957Z,0.70
2018-04-30T04:46:53.445Z,0.87
2018-04-30T04:49:21.916Z,2.17
2018-04-30T04:51:51.536Z,1.00
2018-04-30T04:54:20.460Z,1.10
2018-04-30T04:56:49.838Z,0.80
2018-04-30T04:59:18.325Z,0.80
2018-04-30T05:01:46.793Z,1.13
2018-04-30T05:04:15.749Z,1.00
2018-04-30T05:06:45.078Z,1.10
2018-04-30T05:09:14.043Z,0.90
2018-04-30T05:11:43.294Z,1.00
2018-04-30T05:14:11.800Z,0.80
2018-04-30T05:16:41.773Z,1.00
2018-04-30T05:19:10.362Z,0.83
2018-04-30T05:21:38.832Z,1.00
2018-04-30T05:24:07.310Z,0.80
2018-04-30T05:26:36.267Z,1.20
2018-04-30T05:29:04.597Z,0.80
2018-04-30T05:31:32.889Z,0.90
2018-04-30T05:34:01.370Z,1.10
2018-04-30T05:36:30.008Z,1.03
2018-04-30T05:38:59.270Z,0.93
2018-04-30T05:41:27.755Z,1.23
2018-04-30T05:43:56.359Z,0.97
2018-04-30T05:46:26.532Z,0.80
2018-04-30T05:48:55.038Z,1.13
2018-04-30T05:51:23.529Z,1.00
2018-04-30T05:53:52.138Z,1.07
2018-04-30T05:56:21.152Z,0.90
2018-04-30T05:58:50.280Z,1.43
2018-04-30T06:01:18.891Z,0.90
2018-04-30T06:03:47.494Z,1.00
2018-04-30T06:06:18.436Z,0.80
2018-04-30T06:08:46.970Z,1.00
2018-04-30T06:11:15.452Z,0.67
2018-04-30T06:13:43.930Z,1.00
2018-04-30T06:16:12.596Z,1.00
2018-04-30T06:18:41.843Z,0.70
2018-04-30T06:21:10.405Z,0.80
2018-04-30T06:23:39.000Z,0.93
2018-04-30T06:26:07.578Z,0.80
2018-04-30T06:28:36.064Z,1.00
2018-04-30T06:31:04.661Z,1.00
2018-04-30T06:33:33.141Z,0.93
2018-04-30T06:36:01.649Z,0.63
2018-04-30T06:38:31.065Z,0.90
2018-04-30T06:40:59.533Z,1.07
2018-04-30T06:43:29.089Z,0.60
2018-04-30T06:45:57.230Z,0.80
2018-04-30T06:48:25.874Z,0.70
2018-04-30T06:50:55.400Z,0.67
2018-04-30T06:53:24.931Z,0.60
2018-04-30T06:55:53.984Z,0.70
2018-04-30T06:58:23.309Z,0.60
2018-04-30T07:00:52.788Z,0.70
2018-04-30T07:03:21.269Z,0.50
2018-04-30T07:05:49.758Z,0.50
2018-04-30T07:08:18.234Z,0.80
2018-04-30T07:10:46.739Z,0.50
2018-04-30T07:13:15.401Z,0.50
2018-04-30T07:15:43.885Z,0.67
2018-04-30T07:18:13.270Z,0.63
2018-04-30T07:20:41.769Z,0.50
2018-04-30T07:23:10.245Z,0.50
2018-04-30T07:25:39.732Z,0.57
2018-04-30T07:28:09.237Z,0.60
2018-04-30T07:30:38.840Z,0.80
2018-04-30T07:33:08.414Z,0.70
2018-04-30T07:35:38.124Z,0.40
2018-04-30T07:38:07.608Z,0.57
2018-04-30T07:40:36.094Z,0.60
2018-04-30T07:43:05.618Z,0.57
2018-04-30T07:45:35.135Z,0.70
2018-04-30T07:48:04.796Z,0.70
2018-04-30T07:50:34.396Z,0.57
2018-04-30T07:53:02.953Z,0.80
2018-04-30T07:55:32.520Z,0.60
2018-04-30T07:58:02.059Z,0.70
2018-04-30T08:00:31.578Z,0.63
2018-04-30T08:03:01.627Z,0.70
2018-04-30T08:05:31.054Z,0.70
2018-04-30T08:08:00.627Z,0.60
2018-04-30T08:10:30.122Z,0.70
2018-04-30T08:12:59.470Z,0.70
2018-04-30T08:15:28.977Z,0.77
2018-04-30T08:17:58.620Z,0.60
2018-04-30T08:20:28.114Z,0.60
2018-04-30T08:22:56.673Z,0.53
2018-04-30T08:25:25.151Z,0.90
2018-04-30T08:27:54.673Z,0.67
2018-04-30T08:30:23.240Z,0.80
2018-04-30T08:32:52.732Z,0.77
2018-04-30T08:35:22.234Z,0.60
2018-04-30T08:37:51.732Z,0.60
2018-04-30T08:40:21.297Z,0.60
2018-04-30T08:42:49.797Z,0.70
2018-04-30T08:45:18.291Z,0.60
2018-04-30T08:47:47.793Z,0.50
2018-04-30T08:50:17.280Z,0.70
2018-04-30T08:52:46.910Z,0.70
2018-04-30T08:55:16.564Z,0.50
2018-04-30T08:57:46.089Z,0.70
2018-04-30T09:00:15.765Z,0.63
2018-04-30T09:02:45.520Z,0.87
2018-04-30T09:05:15.026Z,0.80
2018-04-30T09:07:44.725Z,0.50
2018-04-30T09:10:14.221Z,0.83
2018-04-30T09:12:42.686Z,1.00
2018-04-30T09:15:11.183Z,0.70
2018-04-30T09:17:40.701Z,0.70
2018-04-30T09:20:10.176Z,0.60
2018-04-30T09:22:39.783Z,0.60
2018-04-30T09:25:09.277Z,1.07
2018-04-30T09:27:38.768Z,0.60
2018-04-30T09:30:08.394Z,0.77
2018-04-30T09:32:37.873Z,0.70
2018-04-30T09:35:08.257Z,0.60
2018-04-30T09:37:36.825Z,0.70
2018-04-30T09:40:06.312Z,0.63
2018-04-30T09:42:35.817Z,0.60
2018-04-30T09:45:05.319Z,0.60
2018-04-30T09:47:34.824Z,0.60
2018-04-30T09:50:04.585Z,0.57
2018-04-30T09:52:34.086Z,0.70
2018-04-30T09:55:03.570Z,0.67
2018-04-30T09:57:33.048Z,0.70
2018-04-30T10:00:02.808Z,0.57
2018-04-30T10:02:31.299Z,0.70
2018-04-30T10:05:00.821Z,0.63
2018-04-30T10:07:30.306Z,0.50
2018-04-30T10:09:59.848Z,0.60
2018-04-30T10:12:29.325Z,0.60
2018-04-30T10:14:58.581Z,0.80
2018-04-30T10:17:27.891Z,0.70
2018-04-30T10:19:57.435Z,0.70
2018-04-30T10:22:26.957Z,0.60
2018-04-30T10:24:56.460Z,0.70
2018-04-30T10:27:25.941Z,0.70
2018-04-30T10:29:55.425Z,0.80
2018-04-30T10:32:25.165Z,0.80
2018-04-30T10:34:54.660Z,0.70
2018-04-30T10:37:24.156Z,0.73
2018-04-30T10:39:53.704Z,0.70
2018-04-30T10:42:23.276Z,0.80
2018-04-30T10:44:52.762Z,0.83
2018-04-30T10:47:22.256Z,0.90
2018-04-30T10:49:51.781Z,0.63
2018-04-30T10:52:21.344Z,0.60
2018-04-30T10:54:51.000Z,0.60
2018-04-30T10:57:20.488Z,0.60
2018-04-30T10:59:49.977Z,1.00
2018-04-30T11:02:19.477Z,0.80
2018-04-30T11:04:48.965Z,0.80
2018-04-30T11:07:18.456Z,0.70
2018-04-30T11:09:48.116Z,0.70
2018-04-30T11:12:17.606Z,0.70
2018-04-30T11:14:47.076Z,0.80
2018-04-30T11:17:16.559Z,0.70
2018-04-30T11:19:46.069Z,0.70
2018-04-30T11:22:15.568Z,0.70
2018-04-30T11:24:45.137Z,1.03
2018-04-30T11:27:14.608Z,0.87
2018-04-30T11:29:44.136Z,0.70
2018-04-30T11:32:13.629Z,0.70
2018-04-30T11:34:43.316Z,0.90
2018-04-30T11:37:12.839Z,0.80
2018-04-30T11:39:42.369Z,0.87
2018-04-30T11:42:12.061Z,1.30
2018-04-30T11:44:41.566Z,0.73
2018-04-30T11:47:11.307Z,0.90
2018-04-30T11:49:40.937Z,0.60
2018-04-30T11:52:10.388Z,0.60
2018-04-30T11:54:40.084Z,0.97
2018-04-30T11:57:09.648Z,0.80
2018-04-30T11:59:39.125Z,0.80
2018-04-30T12:02:08.602Z,0.70
2018-04-30T12:04:38.164Z,0.60
2018-04-30T12:07:07.695Z,0.70
2018-04-30T12:09:37.201Z,1.07
2018-04-30T12:12:06.696Z,0.70
2018-04-30T12:14:36.400Z,0.70
2018-04-30T12:17:06.214Z,0.70
2018-04-30T12:19:35.728Z,0.70
2018-04-30T12:22:05.342Z,1.00
2018-04-30T12:24:34.944Z,0.70
2018-04-30T12:27:04.448Z,0.80
2018-04-30T12:29:33.620Z,0.80
2018-04-30T12:32:02.838Z,0.70
2018-04-30T12:34:32.337Z,0.70
2018-04-30T12:37:02.058Z,2.10
2018-04-30T12:39:31.769Z,0.83
2018-04-30T12:42:01.277Z,1.37
2018-04-30T12:44:30.804Z,1.27
2018-04-30T12:47:00.285Z,1.00
2018-04-30T12:49:30.028Z,0.90
2018-04-30T12:51:59.765Z,0.90
2018-04-30T12:54:29.449Z,1.43
2018-04-30T12:56:59.084Z,1.40
2018-04-30T12:59:28.568Z,1.10
2018-04-30T13:01:58.257Z,1.10
2018-04-30T13:04:27.932Z,0.70
2018-04-30T13:06:57.437Z,0.80
2018-04-30T13:09:27.141Z,1.07
2018-04-30T13:11:56.637Z,0.60
2018-04-30T13:14:26.211Z,0.90
2018-04-30T13:16:55.909Z,1.10
2018-04-30T13:19:25.392Z,1.00
2018-04-30T13:21:54.890Z,1.07
2018-04-30T13:24:24.381Z,0.90
2018-04-30T13:26:53.936Z,0.70
2018-04-30T13:29:23.457Z,0.90
2018-04-30T13:31:52.933Z,0.90
2018-04-30T13:34:22.541Z,0.70
2018-04-30T13:36:52.040Z,0.70
2018-04-30T13:39:20.913Z,0.80
2018-04-30T13:41:49.410Z,0.80
2018-04-30T13:44:17.928Z,0.70
2018-04-30T13:46:46.485Z,1.00
2018-04-30T13:49:15.063Z,0.90
2018-04-30T13:51:44.556Z,0.80
2018-04-30T13:54:14.058Z,0.53
2018-04-30T13:56:43.570Z,0.50
2018-04-30T13:59:13.076Z,0.60
2018-04-30T14:01:42.567Z,0.80
2018-04-30T14:04:12.172Z,0.67
2018-04-30T14:06:41.657Z,0.60
2018-04-30T14:09:11.139Z,0.93
2018-04-30T14:11:40.789Z,0.80
2018-04-30T14:14:10.351Z,0.87
2018-04-30T14:16:39.953Z,0.97
2018-04-30T14:19:09.431Z,0.73
2018-04-30T14:21:39.063Z,0.70
2018-04-30T14:24:08.225Z,0.90
2018-04-30T14:26:37.749Z,2.40
2018-04-30T14:29:06.214Z,2.50
2018-04-30T14:31:35.153Z,0.80
2018-04-30T14:34:04.824Z,1.03
2018-04-30T14:36:34.385Z,1.17
2018-04-30T14:39:03.411Z,1.13
2018-04-30T14:41:32.881Z,1.87
2018-04-30T14:44:02.465Z,3.47
2018-04-30T14:46:31.942Z,0.70
2018-04-30T14:49:01.450Z,0.70
2018-04-30T14:51:30.944Z,0.60
2018-04-30T14:54:00.567Z,0.70
2018-04-30T14:56:30.115Z,0.80
2018-04-30T14:58:59.614Z,0.70
2018-04-30T15:01:29.128Z,0.80
2018-04-30T15:03:58.836Z,0.80
2018-04-30T15:06:28.324Z,0.70
2018-04-30T15:08:57.894Z,0.87
2018-04-30T15:11:27.384Z,0.60
2018-04-30T15:13:56.967Z,0.90
2018-04-30T15:16:26.465Z,0.83
2018-04-30T15:18:55.944Z,0.73
2018-04-30T15:21:25.775Z,1.00
2018-04-30T15:23:55.416Z,1.23
2018-04-30T15:26:24.975Z,0.90
2018-04-30T15:28:54.585Z,0.87
2018-04-30T15:31:24.124Z,1.03
2018-04-30T15:33:53.621Z,1.27
2018-04-30T15:36:23.108Z,0.83
2018-04-30T15:38:52.603Z,1.13
2018-04-30T15:41:22.099Z,2.20
2018-04-30T15:43:51.804Z,1.10
2018-04-30T15:46:21.348Z,0.90
2018-04-30T15:48:50.821Z,0.90
2018-04-30T15:51:20.432Z,1.63
2018-04-30T15:53:50.509Z,0.70
2018-04-30T15:56:19.274Z,0.80
2018-04-30T15:58:47.774Z,1.20
2018-04-30T16:01:17.355Z,1.30
2018-04-30T16:03:46.952Z,1.10
2018-04-30T16:06:16.565Z,1.00
2018-04-30T16:08:46.111Z,0.83
2018-04-30T16:11:15.583Z,1.10
2018-04-30T16:13:45.222Z,0.70
2018-04-30T16:16:14.696Z,1.10
2018-04-30T16:18:44.199Z,0.90
2018-04-30T16:21:13.858Z,1.10
2018-04-30T16:23:43.351Z,0.90
2018-04-30T16:26:12.839Z,0.60
2018-04-30T16:28:42.429Z,0.80
2018-04-30T16:31:11.922Z,0.70
2018-04-30T16:33:41.173Z,1.00
2018-04-30T16:36:10.456Z,0.97
2018-04-30T16:38:39.940Z,1.00
2018-04-30T16:41:09.446Z,0.90
2018-04-30T16:43:39.079Z,0.70
2018-04-30T16:46:08.568Z,0.90
2018-04-30T16:48:38.073Z,0.80
2018-04-30T16:51:07.678Z,1.00
2018-04-30T16:53:37.170Z,1.00
2018-04-30T16:56:06.688Z,0.80
2018-04-30T16:58:36.209Z,1.00
2018-04-30T17:01:05.852Z,0.80
2018-04-30T17:03:35.370Z,0.90
2018-04-30T17:06:05.047Z,0.90
2018-04-30T17:08:34.549Z,0.80
2018-04-30T17:11:04.027Z,0.90
2018-04-30T17:13:33.526Z,0.97
2018-04-30T17:16:03.022Z,0.90
2018-04-30T17:18:32.555Z,0.70
2018-04-30T17:21:02.062Z,0.90
2018-04-30T17:23:31.798Z,1.17
2018-04-30T17:26:00.997Z,0.87
2018-04-30T17:28:30.626Z,1.00
2018-04-30T17:31:00.112Z,0.80
2018-04-30T17:33:29.614Z,0.80
2018-04-30T17:35:59.140Z,0.97
2018-04-30T17:38:28.661Z,0.93
2018-04-30T17:40:58.287Z,1.20
2018-04-30T17:43:27.972Z,0.90
2018-04-30T17:45:57.459Z,0.90
2018-04-30T17:48:26.997Z,0.90
2018-04-30T17:50:56.574Z,1.10
2018-04-30T17:53:26.108Z,1.37
2018-04-30T17:55:55.606Z,1.33
2018-04-30T17:58:25.099Z,0.80
2018-04-30T18:00:54.587Z,1.00
2018-04-30T18:03:24.238Z,0.80
2018-04-30T18:05:53.728Z,0.80
2018-04-30T18:08:23.249Z,0.83
2018-04-30T18:10:52.752Z,0.87
2018-04-30T18:13:22.231Z,1.03
2018-04-30T18:15:51.715Z,0.90
2018-04-30T18:18:21.254Z,1.17
2018-04-30T18:20:50.761Z,1.37
2018-04-30T18:23:20.248Z,0.97
2018-04-30T18:25:49.788Z,1.20
2018-04-30T18:28:19.300Z,0.97
2018-04-30T18:30:48.901Z,1.13
2018-04-30T18:33:18.577Z,0.80
2018-04-30T18:35:48.352Z,1.00
2018-04-30T18:38:17.861Z,1.00
2018-04-30T18:40:47.362Z,1.00
2018-04-30T18:43:16.860Z,1.00
2018-04-30T18:45:46.513Z,1.10
2018-04-30T18:48:16.013Z,0.97
2018-04-30T18:50:45.585Z,0.77
2018-04-30T18:53:15.101Z,1.00
2018-04-30T18:55:44.625Z,1.00
2018-04-30T18:58:14.331Z,0.97
2018-04-30T19:00:43.856Z,1.00
2018-04-30T19:03:13.380Z,0.83
2018-04-30T19:05:42.990Z,0.83
2018-04-30T19:08:12.479Z,1.07
2018-04-30T19:10:41.990Z,1.10
2018-04-30T19:13:11.573Z,1.23
2018-04-30T19:15:41.191Z,1.30
2018-04-30T19:18:10.701Z,1.60
2018-04-30T19:20:40.219Z,0.90
2018-04-30T19:23:09.781Z,1.00
2018-04-30T19:25:39.365Z,1.07
2018-04-30T19:28:08.862Z,1.03
2018-04-30T19:30:38.407Z,1.10
2018-04-30T19:33:07.895Z,1.20
2018-04-30T19:35:37.593Z,1.40
2018-04-30T19:38:07.063Z,2.20
2018-04-30T19:40:36.650Z,1.60
2018-04-30T19:43:06.229Z,2.10
2018-04-30T19:45:35.744Z,2.23
2018-04-30T19:48:05.274Z,2.00
2018-04-30T19:50:34.773Z,2.20
2018-04-30T19:53:04.301Z,1.97
2018-04-30T19:55:33.814Z,1.50
2018-04-30T19:58:03.379Z,1.20
2018-04-30T20:00:32.938Z,1.30
2018-04-30T20:03:02.421Z,1.00
2018-04-30T20:05:31.926Z,1.20
2018-04-30T20:08:01.589Z,1.27
2018-04-30T20:10:32.041Z,1.10
2018-04-30T20:13:01.538Z,0.87
2018-04-30T20:15:31.112Z,1.10
2018-04-30T20:18:00.586Z,1.70
2018-04-30T20:20:30.186Z,1.40
2018-04-30T20:22:59.869Z,1.40
2018-04-30T20:25:29.497Z,1.60
2018-04-30T20:27:59.088Z,1.03
2018-04-30T20:30:28.584Z,0.93
2018-04-30T20:32:58.097Z,1.23
2018-04-30T20:35:27.596Z,1.10
2018-04-30T20:37:57.256Z,1.00
2018-04-30T20:40:26.876Z,1.20
2018-04-30T20:42:56.404Z,1.17
2018-04-30T20:45:25.664Z,1.00
2018-04-30T20:47:55.159Z,1.10
2018-04-30T20:50:24.655Z,0.83
2018-04-30T20:52:54.242Z,0.90
2018-04-30T20:55:23.728Z,0.90
2018-04-30T20:57:53.217Z,0.90
2018-04-30T21:00:22.707Z,0.73
2018-04-30T21:02:52.203Z,1.07
2018-04-30T21:05:21.501Z,1.03
2018-04-30T21:07:50.968Z,0.93
2018-04-30T21:10:20.558Z,1.03
2018-04-30T21:12:49.728Z,1.00
2018-04-30T21:15:18.997Z,0.83
2018-04-30T21:17:48.462Z,1.03
2018-04-30T21:20:18.021Z,1.00
2018-04-30T21:22:46.549Z,1.10
2018-04-30T21:25:15.137Z,0.90
2018-04-30T21:27:44.381Z,0.90
2018-04-30T21:30:12.597Z,1.27
2018-04-30T21:32:41.122Z,1.10
2018-04-30T21:35:09.681Z,1.10
2018-04-30T21:37:38.929Z,0.80
2018-04-30T21:40:07.631Z,0.87
2018-04-30T21:42:37.025Z,1.10
2018-04-30T21:45:05.553Z,1.20
2018-04-30T21:47:34.856Z,0.97
2018-04-30T21:50:03.496Z,1.07
2018-04-30T21:52:31.985Z,1.40
2018-04-30T21:55:00.529Z,1.30
2018-04-30T21:57:29.186Z,1.40
2018-04-30T21:59:58.561Z,0.90
2018-04-30T22:02:27.032Z,0.80
2018-04-30T22:04:55.536Z,0.87
2018-04-30T22:07:24.804Z,1.00
2018-04-30T22:09:53.310Z,0.87
2018-04-30T22:12:21.967Z,0.83
2018-04-30T22:14:50.131Z,0.70
2018-04-30T22:17:18.607Z,0.90
2018-04-30T22:19:47.198Z,0.80
2018-04-30T22:22:15.854Z,1.77
2018-04-30T22:24:45.102Z,1.23
2018-04-30T22:27:13.583Z,0.80
2018-04-30T22:29:42.266Z,0.80
2018-04-30T22:32:10.757Z,1.00
2018-04-30T22:34:39.219Z,1.37
2018-04-30T22:37:07.736Z,1.07
2018-04-30T22:39:36.216Z,0.87
2018-04-30T22:42:04.740Z,1.07
2018-04-30T22:44:34.037Z,1.10
2018-04-30T22:47:02.581Z,1.00
2018-04-30T22:49:31.221Z,0.93
2018-04-30T22:52:00.565Z,0.90
2018-04-30T22:54:29.039Z,1.00
2018-04-30T22:56:57.511Z,0.90
2018-04-30T22:59:26.033Z,1.03
2018-04-30T23:01:54.488Z,1.00
2018-04-30T23:04:22.973Z,0.90
2018-04-30T23:06:51.446Z,0.80
2018-04-30T23:09:19.954Z,0.80
2018-04-30T23:11:48.601Z,1.00
2018-04-30T23:14:17.112Z,0.90
2018-04-30T23:16:45.661Z,0.97
2018-04-30T23:19:14.955Z,1.07
2018-04-30T23:21:44.213Z,1.00
2018-04-30T23:24:12.845Z,0.93
2018-04-30T23:26:42.275Z,0.90
2018-04-30T23:29:10.805Z,1.10
2018-04-30T23:31:40.057Z,1.00
2018-04-30T23:34:08.528Z,0.70
2018-04-30T23:36:37.019Z,1.17
2018-04-30T23:39:04.832Z,0.70
2018-04-30T23:41:34.197Z,1.10
2018-04-30T23:44:02.689Z,1.10
2018-04-30T23:46:31.241Z,1.00
2018-04-30T23:49:00.470Z,0.90
2018-04-30T23:51:28.952Z,0.97
2018-04-30T23:53:57.423Z,1.10
2018-04-30T23:56:25.959Z,0.83
2018-04-30T23:58:54.874Z,1.10
